Impacts METAR Board INFO
IDs:

KIAH - Houston/Bush Intl, TX, US

Updated at: 1752 UTC 18 Nov 2017
Potential Impact None Slight Moderate High
Time18/05Z 18/06Z 18/07Z 18/08Z 18/09Z 18/10Z 18/11Z 18/12Z 18/13Z 18/14Z 18/15Z 18/16Z 18/17Z
VIS10 10 10 10 10 10 10 10 10 10 10 10 10
CIG-- -- -- -- -- -- 20 22 18 28 28 29 21
CoverFEWFEWFEWSCTFEWFEWBKNBKNBKNBKNOVCOVCOVC
FltCatVFRVFRVFRVFRVFRVFRMVFRMVFRMVFRMVFRMVFRMVFRMVFR
WX--------------------------
WDir1701801901902002000200190220220220250
WSpd9 9 8 6 6 7 4 6 4 7 10 11 11
WGst-- -- -- -- -- -- -- -- -- -- 16 20 15
Raw hourly METARs
KIAH 180453Z 17009KT 10SM FEW020 FEW250 23/21 A2989 RMK AO2 SLP122 T02280206
KIAH 180553Z 18009KT 10SM FEW016 FEW250 22/21 A2988 RMK AO2 SLP119 T02220206 10261 20222 403000200 58009
KIAH 180653Z 19008KT 10SM FEW015 FEW250 22/20 A2987 RMK AO2 SLP113 T02220200
KIAH 180753Z 19006KT 10SM SCT018 SCT250 22/20 A2985 RMK AO2 SLP108 T02220200
KIAH 180853Z 20006KT 10SM FEW020 FEW250 22/20 A2984 RMK AO2 SLP104 T02220200 56015
KIAH 180953Z 20007KT 10SM FEW020 FEW250 22/20 A2982 RMK AO2 SLP099 T02220200
KIAH 181053Z VRB04KT 10SM BKN020 BKN250 22/21 A2983 RMK AO2 SLP099 T02220206
KIAH 181153Z 20006KT 10SM BKN022 BKN250 22/21 A2983 RMK AO2 SLP101 T02170206 10222 20217 55003
KIAH 181253Z 19004KT 10SM BKN018 BKN250 22/21 A2985 RMK AO2 SLP106 T02170206
KIAH 181353Z 22007KT 10SM SCT012 SCT021 BKN028 BKN250 23/21 A2986 RMK AO2 SLP112 T02280211
KIAH 181453Z 22010G16KT 10SM SCT018 OVC028 24/21 A2986 RMK AO2 SLP112 T02390211 51010
KIAH 181553Z 22011G20KT 10SM SCT019 OVC029 25/21 A2986 RMK AO2 SLP110 T02500211
KIAH 181653Z 25011G15KT 10SM BKN021 OVC032 26/21 A2988 RMK AO2 SLP116 T02610211